Time;durP1;ratioP1;P1;durP2;ratioP2;P2;SDS_P1;SDS_P2;PMS_P1;PMS_P2;Temp;Humidity;BMP_temperature;BMP_pressure;BME280_temperature;BME280_humidity;BME280_pressure;Samples;Min_cycle;Max_cycle;Signal;HPM_P1;HPM_P2
2023/02/27 00:00:16;;;;;;;2.83;2.72;;;3.50;95.20;;;;;;5024682;28;20294;-67
2023/02/27 00:02:44;;;;;;;2.75;2.65;;;3.50;95.30;;;;;;5023684;28;20209;-66
2023/02/27 00:05:12;;;;;;;2.65;2.55;;;3.60;95.40;;;;;;5026399;28;20290;-66
2023/02/27 00:07:39;;;;;;;2.50;2.40;;;3.60;95.20;;;;;;5021825;28;20315;-66
2023/02/27 00:10:09;;;;;;;2.30;2.20;;;3.60;95.20;;;;;;5022016;28;20224;-66
2023/02/27 00:12:37;;;;;;;2.50;2.40;;;3.60;95.00;;;;;;5023489;28;22013;-66
2023/02/27 00:15:07;;;;;;;2.60;2.50;;;3.60;94.90;;;;;;5022777;28;20207;-66
2023/02/27 00:17:34;;;;;;;2.60;2.50;;;3.50;94.90;;;;;;5020699;28;20315;-65
2023/02/27 00:20:02;;;;;;;2.60;2.50;;;3.50;95.00;;;;;;5022173;28;20300;-67
2023/02/27 00:22:28;;;;;;;2.80;2.60;;;3.50;95.10;;;;;;5022911;28;20195;-65
2023/02/27 00:24:55;;;;;;;2.38;2.28;;;3.50;95.10;;;;;;5026265;28;20219;-66
2023/02/27 00:27:24;;;;;;;2.70;2.60;;;3.50;95.20;;;;;;5020269;28;20244;-65
2023/02/27 00:29:51;;;;;;;2.92;2.80;;;3.50;95.30;;;;;;5022687;28;20282;-66
2023/02/27 00:32:17;;;;;;;3.08;2.95;;;3.40;95.20;;;;;;5026377;28;20287;-65
2023/02/27 00:34:44;;;;;;;2.53;2.42;;;3.40;95.20;;;;;;5023677;28;20824;-65
2023/02/27 00:37:11;;;;;;;2.45;2.35;;;3.40;95.30;;;;;;5022797;28;20323;-66
2023/02/27 00:39:38;;;;;;;2.50;2.40;;;3.40;95.70;;;;;;5023383;28;20314;-66
2023/02/27 00:42:05;;;;;;;2.50;2.40;;;3.40;95.90;;;;;;5022534;28;20287;-66
2023/02/27 00:44:33;;;;;;;2.60;2.50;;;3.50;96.10;;;;;;5021916;28;20468;-65
2023/02/27 00:47:00;;;;;;;2.50;2.40;;;3.50;96.10;;;;;;5026548;28;20247;-65
2023/02/27 00:49:27;;;;;;;2.50;2.40;;;3.60;96.10;;;;;;5024494;28;20291;-66
2023/02/27 00:51:54;;;;;;;2.83;2.72;;;3.60;96.00;;;;;;5022794;28;20228;-66
2023/02/27 00:54:21;;;;;;;2.65;2.55;;;3.60;95.90;;;;;;5023962;28;20230;-66
2023/02/27 00:56:48;;;;;;;2.70;2.60;;;3.60;95.70;;;;;;5025707;28;20247;-65
2023/02/27 00:59:15;;;;;;;2.50;2.40;;;3.60;95.70;;;;;;5024767;28;20310;-66
2023/02/27 01:01:44;;;;;;;2.55;2.45;;;3.60;95.60;;;;;;5021287;28;20365;-66
2023/02/27 01:04:11;;;;;;;2.60;2.50;;;3.60;95.80;;;;;;5022441;28;20685;-66
2023/02/27 01:06:38;;;;;;;2.45;2.35;;;3.60;95.60;;;;;;5024617;28;20254;-66
2023/02/27 01:09:05;;;;;;;2.70;2.60;;;3.60;95.60;;;;;;5021367;28;20711;-65
2023/02/27 01:11:32;;;;;;;2.70;2.60;;;3.60;95.40;;;;;;5022112;28;20949;-65
2023/02/27 01:13:59;;;;;;;2.53;2.42;;;3.60;95.60;;;;;;5023329;28;20279;-66
2023/02/27 01:16:26;;;;;;;2.60;2.50;;;3.60;95.90;;;;;;5023109;28;20302;-65
2023/02/27 01:18:54;;;;;;;2.20;2.13;;;3.60;95.80;;;;;;5022999;28;20335;-66
2023/02/27 01:21:21;;;;;;;2.53;2.42;;;3.60;95.70;;;;;;5019734;28;20286;-66
2023/02/27 01:23:48;;;;;;;2.65;2.55;;;3.60;95.80;;;;;;5022499;28;20287;-66
2023/02/27 01:26:15;;;;;;;2.17;2.08;;;3.60;96.10;;;;;;5021516;28;20302;-66
2023/02/27 01:28:42;;;;;;;2.50;2.40;;;3.70;96.30;;;;;;5025137;28;20279;-66
2023/02/27 01:31:09;;;;;;;2.80;2.70;;;3.60;95.80;;;;;;5020962;28;20274;-66
2023/02/27 01:33:36;;;;;;;2.63;2.53;;;3.60;95.70;;;;;;5019911;28;20654;-66
2023/02/27 01:36:05;;;;;;;2.50;2.40;;;3.60;95.50;;;;;;5021662;28;20299;-67
2023/02/27 01:38:32;;;;;;;2.50;2.40;;;3.60;95.50;;;;;;5023685;28;20302;-65
2023/02/27 01:40:59;;;;;;;2.53;2.42;;;3.50;95.80;;;;;;5024493;28;20211;-65
2023/02/27 01:43:27;;;;;;;2.22;2.13;;;3.50;96.20;;;;;;5022073;28;20203;-65
2023/02/27 01:45:54;;;;;;;2.53;2.42;;;3.50;96.30;;;;;;5018716;28;20302;-65
2023/02/27 01:48:24;;;;;;;2.42;2.33;;;3.50;96.10;;;;;;5022954;28;20199;-65
2023/02/27 01:50:55;;;;;;;2.70;2.60;;;3.40;96.20;;;;;;5022946;28;20283;-66
2023/02/27 01:53:24;;;;;;;2.45;2.35;;;3.50;96.00;;;;;;5023724;28;20298;-65
2023/02/27 01:55:54;;;;;;;2.67;2.58;;;3.50;96.20;;;;;;5020714;28;20196;-65
2023/02/27 01:58:21;;;;;;;2.95;2.38;;;3.50;96.50;;;;;;5024341;28;20409;-65
2023/02/27 02:00:49;;;;;;;3.20;3.10;;;3.50;96.50;;;;;;5021285;28;20282;-65
2023/02/27 02:03:23;;;;;;;2.80;2.70;;;3.50;96.50;;;;;;5022308;28;20282;-66
2023/02/27 02:05:53;;;;;;;2.40;2.30;;;3.40;96.50;;;;;;5025349;28;20416;-65
2023/02/27 02:08:22;;;;;;;2.85;2.75;;;3.40;96.50;;;;;;5024055;28;20872;-66
2023/02/27 02:10:51;;;;;;;2.90;2.80;;;3.30;96.90;;;;;;5024339;28;20713;-65
2023/02/27 02:13:20;;;;;;;2.50;2.40;;;3.30;97.10;;;;;;5021634;28;20283;-67
2023/02/27 02:15:56;;;;;;;2.67;2.58;;;3.40;97.60;;;;;;5026108;28;20259;-66
2023/02/27 02:18:33;;;;;;;2.45;2.35;;;3.40;97.50;;;;;;5022227;28;20843;-65
2023/02/27 02:21:43;;;;;;;2.70;2.60;;;3.40;97.30;;;;;;5024470;28;21213;-66
2023/02/27 02:24:33;;;;;;;2.80;2.70;;;3.40;97.40;;;;;;5027332;28;20286;-66
2023/02/27 02:27:12;;;;;;;2.75;2.65;;;3.30;97.40;;;;;;5023614;28;20216;-65
2023/02/27 02:30:11;;;;;;;2.65;2.55;;;3.30;97.30;;;;;;5023027;28;20245;-65
2023/02/27 02:33:11;;;;;;;2.50;2.40;;;3.30;97.10;;;;;;5019324;28;20283;-66
2023/02/27 02:36:22;;;;;;;3.03;2.92;;;3.30;97.40;;;;;;5023232;28;20234;-66
2023/02/27 02:39:17;;;;;;;2.72;2.63;;;3.30;97.30;;;;;;5024765;28;20306;-66
2023/02/27 02:41:57;;;;;;;2.72;2.63;;;3.30;97.20;;;;;;5025427;28;20283;-66
2023/02/27 02:44:34;;;;;;;2.65;2.55;;;3.40;97.40;;;;;;5025686;28;20364;-65
2023/02/27 02:47:10;;;;;;;2.72;2.63;;;3.40;97.30;;;;;;5026018;28;20306;-72
2023/02/27 02:49:46;;;;;;;2.78;2.67;;;3.40;97.20;;;;;;5024131;28;20227;-65
2023/02/27 02:52:20;;;;;;;2.67;2.58;;;3.40;97.20;;;;;;5029215;28;20640;-65
2023/02/27 02:54:54;;;;;;;2.67;2.58;;;3.40;97.10;;;;;;5025391;28;20278;-66
2023/02/27 02:57:27;;;;;;;2.83;2.63;;;3.40;97.00;;;;;;5024283;28;20333;-66
2023/02/27 03:00:02;;;;;;;2.45;2.35;;;3.40;97.30;;;;;;5024767;28;20212;-66
2023/02/27 03:02:34;;;;;;;2.75;2.63;;;3.30;97.10;;;;;;5023745;28;20202;-65
2023/02/27 03:05:06;;;;;;;2.72;2.63;;;3.30;97.20;;;;;;5021842;28;20227;-65
2023/02/27 03:07:38;;;;;;;2.67;2.58;;;3.30;97.30;;;;;;5025429;28;20314;-65
2023/02/27 03:10:11;;;;;;;2.65;2.55;;;3.30;97.40;;;;;;5023635;28;20657;-65
2023/02/27 03:12:42;;;;;;;3.10;2.90;;;3.30;97.70;;;;;;5023513;28;20274;-65
2023/02/27 03:15:15;;;;;;;2.85;2.75;;;3.30;97.90;;;;;;5025978;28;20283;-66
2023/02/27 03:17:48;;;;;;;3.00;2.90;;;3.40;98.20;;;;;;5022899;28;20230;-67
2023/02/27 03:20:20;;;;;;;2.53;2.42;;;3.30;97.50;;;;;;5022037;28;20307;-65
2023/02/27 03:22:52;;;;;;;2.47;2.38;;;3.30;97.50;;;;;;5025400;28;20630;-65
2023/02/27 03:25:21;;;;;;;2.80;2.70;;;3.20;97.50;;;;;;5026608;28;20196;-66
2023/02/27 03:27:53;;;;;;;2.78;2.67;;;3.10;97.70;;;;;;5023850;28;20418;-66
2023/02/27 03:30:26;;;;;;;2.45;2.25;;;3.00;97.60;;;;;;5020655;28;20280;-65
2023/02/27 03:32:58;;;;;;;2.78;2.67;;;3.00;97.90;;;;;;5022690;28;20191;-65
2023/02/27 03:35:32;;;;;;;2.63;2.53;;;3.00;98.30;;;;;;5024322;28;20204;-66
2023/02/27 03:38:06;;;;;;;2.75;2.65;;;3.00;98.10;;;;;;5021858;28;20310;-65
2023/02/27 03:40:39;;;;;;;2.67;2.58;;;3.00;98.00;;;;;;5016324;28;20712;-66
2023/02/27 03:43:17;;;;;;;2.83;2.70;;;3.10;98.20;;;;;;5019206;28;20250;-66
2023/02/27 03:45:55;;;;;;;2.80;2.70;;;3.10;98.20;;;;;;5021522;28;20290;-65
2023/02/27 03:48:22;;;;;;;2.70;2.60;;;3.10;98.50;;;;;;5021882;28;20307;-65
2023/02/27 03:50:49;;;;;;;2.60;2.50;;;3.10;98.50;;;;;;5021142;28;20220;-65
2023/02/27 03:53:25;;;;;;;2.70;2.60;;;3.20;98.90;;;;;;5020620;28;20275;-65
2023/02/27 03:55:54;;;;;;;2.65;2.55;;;3.20;98.40;;;;;;5018996;28;20323;-65
2023/02/27 03:58:21;;;;;;;2.70;2.60;;;3.20;98.80;;;;;;5020705;28;20695;-65
2023/02/27 04:00:48;;;;;;;2.90;2.80;;;3.30;98.60;;;;;;5019373;28;20311;-65
2023/02/27 04:03:15;;;;;;;2.35;2.25;;;3.30;98.50;;;;;;5019314;28;20637;-65
2023/02/27 04:05:42;;;;;;;2.90;2.80;;;3.30;98.40;;;;;;5023856;28;20732;-65
2023/02/27 04:08:31;;;;;;;2.80;2.70;;;3.30;98.00;;;;;;5022208;28;20318;-65
2023/02/27 04:11:16;;;;;;;2.50;2.40;;;3.20;98.10;;;;;;5015837;28;20199;-66
2023/02/27 04:13:59;;;;;;;2.47;2.38;;;3.20;98.90;;;;;;5019616;28;20231;-66
2023/02/27 04:16:40;;;;;;;2.50;2.40;;;3.20;99.00;;;;;;5019638;28;20948;-65
2023/02/27 04:19:18;;;;;;;2.95;2.85;;;3.20;98.90;;;;;;5017856;28;20449;-65
2023/02/27 04:21:56;;;;;;;2.60;2.50;;;3.20;99.40;;;;;;5017399;28;20291;-66
2023/02/27 04:24:34;;;;;;;2.40;2.30;;;3.20;98.90;;;;;;5021307;28;20766;-65
2023/02/27 04:27:07;;;;;;;2.53;2.42;;;3.20;98.60;;;;;;5020697;28;20254;-65
2023/02/27 04:29:42;;;;;;;2.55;2.45;;;3.20;98.90;;;;;;5014444;28;20319;-65
2023/02/27 04:32:18;;;;;;;2.42;2.33;;;3.20;98.90;;;;;;5020334;28;20290;-65
2023/02/27 04:34:50;;;;;;;2.85;2.60;;;3.30;99.10;;;;;;5015770;28;20993;-66
2023/02/27 04:37:24;;;;;;;2.70;2.60;;;3.20;99.10;;;;;;5021270;28;20242;-66
2023/02/27 04:39:56;;;;;;;2.58;2.47;;;3.30;99.20;;;;;;5020842;28;20302;-65
2023/02/27 04:42:28;;;;;;;2.60;2.50;;;3.20;99.20;;;;;;5018054;28;20258;-66
2023/02/27 04:44:59;;;;;;;2.50;2.40;;;3.20;99.40;;;;;;5020956;28;20303;-65
2023/02/27 04:47:30;;;;;;;2.97;2.78;;;3.20;99.50;;;;;;5023035;28;20756;-66
2023/02/27 04:50:02;;;;;;;2.75;2.65;;;3.20;99.60;;;;;;5026146;28;20289;-66
2023/02/27 04:52:34;;;;;;;2.72;2.63;;;3.30;99.50;;;;;;5022702;28;20231;-66
2023/02/27 04:55:08;;;;;;;2.75;2.55;;;3.30;99.60;;;;;;5021352;28;20191;-66
2023/02/27 04:57:40;;;;;;;3.35;3.22;;;3.30;99.60;;;;;;5022469;28;20219;-65
2023/02/27 05:00:11;;;;;;;3.60;3.40;;;3.30;99.60;;;;;;5025264;28;20208;-66
2023/02/27 05:02:42;;;;;;;3.67;3.47;;;3.30;99.60;;;;;;5022709;28;20681;-66
2023/02/27 05:05:14;;;;;;;3.30;3.10;;;3.30;99.60;;;;;;5023370;28;20307;-65
2023/02/27 05:07:47;;;;;;;3.30;3.10;;;3.40;99.70;;;;;;5021536;28;20255;-66
2023/02/27 05:10:18;;;;;;;3.10;3.00;;;3.40;99.60;;;;;;5024088;28;20291;-65
2023/02/27 05:15:22;;;;;;;2.92;2.80;;;3.40;99.90;;;;;;5031403;28;20213;-75
2023/02/27 05:17:55;;;;;;;4.30;4.00;;;3.40;99.80;;;;;;5028834;28;20250;-77
2023/02/27 05:20:25;;;;;;;3.63;3.42;;;3.40;99.90;;;;;;5026393;28;20247;-77
2023/02/27 05:23:00;;;;;;;3.90;3.60;;;3.40;99.80;;;;;;5022433;28;20459;-77
2023/02/27 05:25:33;;;;;;;3.42;3.22;;;3.30;99.70;;;;;;5037624;28;20223;-77
2023/02/27 05:28:04;;;;;;;3.72;3.42;;;3.30;99.50;;;;;;5025971;28;20219;-77
2023/02/27 05:30:43;;;;;;;3.60;3.40;;;3.20;99.90;;;;;;5025669;28;20195;-77
2023/02/27 05:33:15;;;;;;;3.75;3.47;;;3.20;99.90;;;;;;5024582;28;20211;-77
2023/02/27 05:35:48;;;;;;;3.85;3.55;;;3.10;99.90;;;;;;5028954;28;20192;-77
2023/02/27 05:38:22;;;;;;;3.95;3.65;;;3.20;99.90;;;;;;5027252;28;20222;-75
2023/02/27 05:40:55;;;;;;;3.35;3.15;;;3.20;99.90;;;;;;5028987;28;20265;-77
2023/02/27 05:43:27;;;;;;;3.28;3.08;;;3.20;99.90;;;;;;5025555;28;20220;-78
2023/02/27 05:46:01;;;;;;;4.20;3.90;;;3.30;99.90;;;;;;5026518;28;21059;-77
2023/02/27 05:48:32;;;;;;;4.30;4.00;;;3.20;99.90;;;;;;5028916;28;20195;-77
2023/02/27 05:51:00;;;;;;;4.47;4.18;;;3.30;99.90;;;;;;5024882;28;20199;-78
2023/02/27 05:53:33;;;;;;;6.35;4.60;;;3.20;99.90;;;;;;5026224;28;20316;-78
2023/02/27 05:56:04;;;;;;;3.83;3.63;;;3.20;99.90;;;;;;5025679;28;20314;-78
2023/02/27 05:58:35;;;;;;;3.70;3.50;;;3.10;99.90;;;;;;5029582;28;20259;-77
2023/02/27 06:01:05;;;;;;;3.58;3.38;;;3.00;99.90;;;;;;5029889;28;20230;-77
2023/02/27 06:03:35;;;;;;;3.70;3.38;;;3.00;99.90;;;;;;5028347;28;20266;-77
2023/02/27 06:06:05;;;;;;;3.67;3.47;;;3.00;99.90;;;;;;5025984;28;20235;-77
2023/02/27 06:08:33;;;;;;;3.45;3.25;;;3.00;99.90;;;;;;5025497;28;20265;-77
2023/02/27 06:11:00;;;;;;;3.67;3.47;;;3.00;99.90;;;;;;5033795;28;20187;-77
2023/02/27 06:13:27;;;;;;;3.10;3.00;;;3.10;99.90;;;;;;5033888;28;20920;-77
2023/02/27 06:15:54;;;;;;;3.00;2.90;;;3.10;99.90;;;;;;5026972;28;20618;-77
2023/02/27 06:18:23;;;;;;;2.70;2.60;;;3.20;99.90;;;;;;5025230;28;20203;-77
2023/02/27 06:20:50;;;;;;;2.83;2.72;;;3.20;99.90;;;;;;5028326;28;20219;-77
2023/02/27 06:23:18;;;;;;;3.05;2.95;;;3.30;99.90;;;;;;5033480;28;20219;-77
2023/02/27 06:25:45;;;;;;;3.33;2.67;;;3.30;99.90;;;;;;5029738;28;20211;-77
2023/02/27 06:28:12;;;;;;;3.10;3.00;;;3.30;99.90;;;;;;5026813;28;20206;-76
2023/02/27 06:30:43;;;;;;;2.88;2.78;;;3.30;99.90;;;;;;5029091;28;20244;-76
2023/02/27 06:33:11;;;;;;;2.85;2.75;;;3.40;99.90;;;;;;5028174;28;20251;-76
2023/02/27 06:35:39;;;;;;;3.10;2.90;;;3.30;99.90;;;;;;5023129;28;20206;-76
2023/02/27 06:38:06;;;;;;;3.08;2.88;;;3.40;99.90;;;;;;5029191;28;20485;-77
2023/02/27 06:40:33;;;;;;;3.05;2.80;;;3.40;99.90;;;;;;5023057;28;20435;-77
2023/02/27 06:43:07;;;;;;;2.80;2.70;;;3.50;99.90;;;;;;5027925;28;20274;-77
2023/02/27 06:45:34;;;;;;;2.67;2.58;;;3.50;99.90;;;;;;5021902;28;20204;-77
2023/02/27 06:48:01;;;;;;;2.97;2.88;;;3.40;99.90;;;;;;5021364;28;20259;-76
2023/02/27 06:50:28;;;;;;;2.80;2.60;;;3.40;99.90;;;;;;5030547;28;20290;-77
2023/02/27 06:52:56;;;;;;;2.80;2.70;;;3.50;99.90;;;;;;5028794;28;20187;-77
2023/02/27 06:55:24;;;;;;;2.65;2.55;;;3.50;99.90;;;;;;5028460;28;20276;-75
2023/02/27 06:57:51;;;;;;;2.67;2.58;;;3.50;99.90;;;;;;5019985;28;20211;-76
2023/02/27 07:00:19;;;;;;;2.70;2.60;;;3.60;99.90;;;;;;5023721;28;20219;-75
2023/02/27 07:02:46;;;;;;;2.80;2.70;;;3.70;99.90;;;;;;5027301;28;20746;-76
2023/02/27 07:05:13;;;;;;;2.90;2.80;;;3.70;99.90;;;;;;5020481;28;20203;-76
2023/02/27 07:07:41;;;;;;;2.58;2.47;;;3.80;99.90;;;;;;5026432;28;20633;-76
2023/02/27 07:10:11;;;;;;;2.80;2.70;;;3.80;99.90;;;;;;5023169;28;20206;-76
2023/02/27 07:12:39;;;;;;;3.25;3.10;;;3.80;99.90;;;;;;5029854;28;20183;-75
2023/02/27 07:15:07;;;;;;;3.10;2.92;;;3.80;99.90;;;;;;5044862;28;20200;-76
2023/02/27 07:17:34;;;;;;;3.00;2.90;;;3.90;99.90;;;;;;5043522;28;20246;-76
2023/02/27 07:20:01;;;;;;;3.10;3.00;;;3.90;99.90;;;;;;5035354;28;20223;-78
2023/02/27 07:22:28;;;;;;;3.50;3.30;;;3.80;99.90;;;;;;5040819;28;20207;-77
2023/02/27 07:24:58;;;;;;;2.90;2.80;;;3.90;99.90;;;;;;5026579;28;20211;-77
2023/02/27 07:27:27;;;;;;;3.20;3.10;;;3.90;99.90;;;;;;5024069;28;20267;-76
2023/02/27 07:29:54;;;;;;;3.40;3.20;;;4.00;99.90;;;;;;5027433;28;20272;-79
2023/02/27 07:32:21;;;;;;;3.30;3.10;;;4.00;99.90;;;;;;5027128;28;20250;-79
2023/02/27 07:34:49;;;;;;;3.08;2.88;;;4.00;99.90;;;;;;5030038;28;20235;-78
2023/02/27 07:37:16;;;;;;;2.90;2.70;;;4.10;99.90;;;;;;5024241;28;20207;-79
2023/02/27 07:39:45;;;;;;;3.45;3.25;;;4.00;99.90;;;;;;5026557;28;20196;-78
2023/02/27 07:42:12;;;;;;;3.05;2.95;;;4.00;99.90;;;;;;5026727;28;20203;-79
2023/02/27 07:44:41;;;;;;;3.22;2.97;;;3.90;99.90;;;;;;5026574;28;20844;-77
2023/02/27 07:47:08;;;;;;;3.03;2.83;;;3.70;99.90;;;;;;5043133;28;20200;-78
2023/02/27 07:49:35;;;;;;;3.05;2.95;;;3.60;99.90;;;;;;5029510;28;20282;-77
2023/02/27 07:52:02;;;;;;;3.05;2.95;;;3.60;99.90;;;;;;5019326;28;20192;-77
2023/02/27 07:54:29;;;;;;;3.05;2.85;;;3.70;99.90;;;;;;5020360;28;20220;-78
2023/02/27 07:56:56;;;;;;;3.38;3.17;;;3.80;99.90;;;;;;5022607;28;20188;-77
2023/02/27 07:59:26;;;;;;;3.17;2.97;;;3.90;99.90;;;;;;5028204;28;20200;-79
2023/02/27 08:01:55;;;;;;;3.75;3.45;;;4.00;99.90;;;;;;5026273;28;20243;-79
2023/02/27 08:04:22;;;;;;;2.90;2.80;;;4.00;99.90;;;;;;5027500;28;20297;-77
2023/02/27 08:06:49;;;;;;;2.90;2.80;;;4.00;99.90;;;;;;5023847;28;20728;-77
2023/02/27 08:09:17;;;;;;;3.20;3.00;;;4.00;99.90;;;;;;5029062;28;20698;-77
2023/02/27 08:11:44;;;;;;;3.42;3.22;;;4.00;99.90;;;;;;5026557;28;20195;-77
2023/02/27 08:14:11;;;;;;;3.13;3.00;;;4.00;99.90;;;;;;5026170;28;20443;-79
2023/02/27 08:16:40;;;;;;;3.30;3.10;;;3.90;99.90;;;;;;5025352;28;20204;-80
2023/02/27 08:19:09;;;;;;;4.65;2.90;;;3.90;99.90;;;;;;5032988;28;20207;-76
2023/02/27 08:21:36;;;;;;;3.70;3.40;;;4.00;99.90;;;;;;5034743;28;20782;-77
2023/02/27 08:24:03;;;;;;;3.03;2.83;;;4.00;99.90;;;;;;5025908;28;20216;-79
2023/02/27 08:26:30;;;;;;;3.17;2.97;;;4.10;99.90;;;;;;5024373;28;20230;-78
2023/02/27 08:29:03;;;;;;;3.22;3.00;;;4.20;99.90;;;;;;5031696;28;20315;-81
2023/02/27 08:31:32;;;;;;;3.53;3.33;;;4.30;99.90;;;;;;5031451;28;20245;-81
2023/02/27 08:33:59;;;;;;;3.13;2.92;;;4.40;99.90;;;;;;5026342;28;20215;-78
2023/02/27 08:36:27;;;;;;;3.60;3.40;;;4.50;99.90;;;;;;5029269;28;20227;-78
2023/02/27 08:38:55;;;;;;;3.40;3.10;;;4.60;99.90;;;;;;5026707;28;20203;-78
2023/02/27 08:41:22;;;;;;;3.30;3.10;;;4.50;99.90;;;;;;5026120;28;20212;-78
2023/02/27 08:43:49;;;;;;;2.97;2.72;;;4.50;99.90;;;;;;5029200;28;20212;-80
2023/02/27 08:46:22;;;;;;;2.97;2.80;;;4.50;99.90;;;;;;5027296;28;20200;-77
2023/02/27 08:48:48;;;;;;;3.22;3.03;;;4.40;99.90;;;;;;5031106;28;20208;-78
2023/02/27 08:51:21;;;;;;;3.30;3.10;;;4.50;99.90;;;;;;5025322;28;20415;-79
2023/02/27 08:53:50;;;;;;;2.95;2.80;;;4.50;99.90;;;;;;5020825;28;20224;-77
2023/02/27 08:56:20;;;;;;;3.05;2.78;;;4.50;99.90;;;;;;5020777;28;20238;-76
2023/02/27 08:58:47;;;;;;;3.05;2.85;;;4.50;99.90;;;;;;5025702;28;20242;-77
2023/02/27 09:01:14;;;;;;;2.78;2.67;;;4.50;99.90;;;;;;5030896;28;20242;-77
2023/02/27 09:03:41;;;;;;;3.03;2.83;;;4.60;99.90;;;;;;5025936;28;20224;-77
2023/02/27 09:06:09;;;;;;;3.13;2.90;;;4.70;99.90;;;;;;5034608;28;20200;-80
2023/02/27 09:08:36;;;;;;;3.15;2.97;;;4.70;99.90;;;;;;5029112;28;20197;-78
2023/02/27 09:11:06;;;;;;;2.55;2.45;;;4.80;99.90;;;;;;5025677;28;20221;-78
2023/02/27 09:13:36;;;;;;;3.10;2.90;;;4.90;99.90;;;;;;5034236;28;20287;-78
2023/02/27 09:16:06;;;;;;;2.97;2.78;;;5.00;99.90;;;;;;5035299;28;20188;-78
2023/02/27 09:18:34;;;;;;;3.17;2.95;;;5.10;99.90;;;;;;5041693;28;20308;-78
2023/02/27 09:21:02;;;;;;;3.00;2.80;;;5.20;99.90;;;;;;5034999;28;20212;-77
2023/02/27 09:23:29;;;;;;;3.50;3.30;;;5.10;99.90;;;;;;5046718;28;20249;-78
2023/02/27 09:25:56;;;;;;;3.17;2.97;;;5.10;99.90;;;;;;5032086;28;20203;-79
2023/02/27 09:28:24;;;;;;;2.92;2.83;;;5.20;99.90;;;;;;5027947;28;20216;-77
2023/02/27 09:30:56;;;;;;;2.92;2.80;;;5.30;99.90;;;;;;5031221;28;20722;-78
2023/02/27 09:33:25;;;;;;;3.20;3.00;;;5.40;99.90;;;;;;5027414;28;20773;-77
2023/02/27 09:35:52;;;;;;;3.40;3.13;;;5.60;99.90;;;;;;5041289;28;20199;-77
2023/02/27 09:38:20;;;;;;;3.20;3.00;;;5.70;99.90;;;;;;5041846;28;20203;-79
2023/02/27 09:40:49;;;;;;;3.40;3.20;;;5.70;99.90;;;;;;5024962;28;20231;-76
2023/02/27 09:43:21;;;;;;;3.00;2.80;;;5.70;99.90;;;;;;5025557;28;20452;-78
2023/02/27 09:45:57;;;;;;;3.03;2.83;;;5.80;99.90;;;;;;5024871;28;20192;-78
2023/02/27 09:48:30;;;;;;;3.10;2.90;;;5.80;99.90;;;;;;5020330;28;20207;-78
2023/02/27 09:50:57;;;;;;;3.55;3.35;;;5.90;99.90;;;;;;5028753;28;20409;-77
2023/02/27 09:53:28;;;;;;;2.70;2.60;;;5.90;99.90;;;;;;5020895;28;20224;-77
2023/02/27 09:56:00;;;;;;;3.38;3.17;;;6.00;99.90;;;;;;5021324;28;20207;-77
2023/02/27 09:58:42;;;;;;;2.78;2.58;;;6.10;99.90;;;;;;5017519;28;20214;-78
2023/02/27 10:01:16;;;;;;;2.90;2.70;;;6.20;99.90;;;;;;5025242;28;20211;-77
2023/02/27 10:04:18;;;;;;;3.83;2.92;;;6.30;99.90;;;;;;5020022;28;20226;-79
2023/02/27 10:06:51;;;;;;;2.95;2.75;;;6.30;99.90;;;;;;5018163;28;20203;-78
2023/02/27 10:09:29;;;;;;;2.90;2.80;;;6.50;99.90;;;;;;5028988;28;20207;-79
2023/02/27 10:12:06;;;;;;;2.60;2.50;;;6.70;99.90;;;;;;5023687;28;20189;-79
2023/02/27 10:14:41;;;;;;;2.75;2.53;;;7.10;99.90;;;;;;5021769;28;20207;-76
2023/02/27 10:17:18;;;;;;;2.70;2.60;;;7.60;99.90;;;;;;5033952;28;20832;-78
2023/02/27 10:19:48;;;;;;;2.63;2.42;;;8.00;99.90;;;;;;5020502;28;20199;-77
2023/02/27 10:22:24;;;;;;;2.60;2.50;;;8.60;99.90;;;;;;5020506;28;20568;-79
2023/02/27 10:24:54;;;;;;;2.53;2.33;;;9.00;98.60;;;;;;5019251;28;20380;-77
2023/02/27 10:27:23;;;;;;;2.58;2.47;;;9.30;99.20;;;;;;5020595;28;20207;-75
2023/02/27 10:29:51;;;;;;;2.70;2.50;;;9.40;98.20;;;;;;5016241;28;20215;-77
2023/02/27 10:32:22;;;;;;;5.30;2.40;;;9.80;98.10;;;;;;5023166;28;20216;-75
2023/02/27 10:34:54;;;;;;;2.35;2.17;;;9.70;96.90;;;;;;5014688;28;20243;-77
2023/02/27 10:37:24;;;;;;;2.50;2.30;;;9.50;97.10;;;;;;5011581;28;20301;-77
2023/02/27 10:39:56;;;;;;;5.72;2.65;;;9.30;96.50;;;;;;5017169;28;20218;-78
2023/02/27 10:42:25;;;;;;;2.38;2.28;;;9.50;97.20;;;;;;5020988;28;20227;-75
2023/02/27 10:44:53;;;;;;;2.95;2.30;;;9.70;96.60;;;;;;5019673;28;20273;-76
2023/02/27 10:47:24;;;;;;;2.50;2.30;;;9.80;95.80;;;;;;5021268;28;20203;-76
2023/02/27 10:49:53;;;;;;;2.75;2.55;;;10.00;96.10;;;;;;5018116;28;20207;-76
2023/02/27 10:52:20;;;;;;;2.30;2.20;;;10.50;94.50;;;;;;5014776;28;20242;-76
2023/02/27 10:54:48;;;;;;;2.20;2.10;;;10.30;94.20;;;;;;5018015;28;20208;-75
2023/02/27 10:57:32;;;;;;;4.45;2.30;;;10.40;94.60;;;;;;5029543;28;20192;-77
2023/02/27 11:00:03;;;;;;;2.17;2.08;;;11.00;94.70;;;;;;5043836;28;20238;-78
2023/02/27 11:02:36;;;;;;;2.42;2.22;;;11.70;94.00;;;;;;5022571;28;20243;-76
2023/02/27 11:05:06;;;;;;;2.78;2.30;;;11.90;91.60;;;;;;5027783;28;20227;-76
2023/02/27 11:07:42;;;;;;;2.10;2.00;;;12.10;93.30;;;;;;5024781;28;20199;-76
2023/02/27 11:10:20;;;;;;;2.20;2.10;;;12.10;91.30;;;;;;5013258;28;20215;-79
2023/02/27 11:13:00;;;;;;;2.13;2.03;;;11.70;90.50;;;;;;5027589;28;20195;-77
2023/02/27 11:15:29;;;;;;;2.45;2.30;;;10.90;90.70;;;;;;5021057;28;20227;-76
2023/02/27 11:18:20;;;;;;;2.13;2.03;;;10.70;91.60;;;;;;5013450;28;20223;-79
2023/02/27 11:20:49;;;;;;;2.40;2.30;;;10.50;91.40;;;;;;5023670;28;20745;-78
2023/02/27 11:23:19;;;;;;;2.13;1.90;;;10.30;92.10;;;;;;5017636;28;20590;-77
2023/02/27 11:25:47;;;;;;;2.00;1.90;;;10.10;92.30;;;;;;5018686;28;20329;-78
2023/02/27 11:28:21;;;;;;;2.10;2.00;;;9.90;91.70;;;;;;5021939;28;20195;-76
2023/02/27 11:30:58;;;;;;;2.20;2.00;;;9.60;91.80;;;;;;5023934;28;20615;-78
2023/02/27 11:33:28;;;;;;;2.13;2.00;;;9.40;91.90;;;;;;5020802;28;20628;-77
2023/02/27 11:35:58;;;;;;;2.00;1.80;;;9.40;92.80;;;;;;5023858;28;20223;-78
2023/02/27 11:38:27;;;;;;;1.80;1.70;;;9.40;92.90;;;;;;5020779;28;20673;-78
2023/02/27 11:40:57;;;;;;;2.22;2.13;;;9.40;92.60;;;;;;5020176;28;20230;-77
2023/02/27 11:43:26;;;;;;;2.22;2.13;;;9.40;92.60;;;;;;5018514;28;20747;-78
2023/02/27 11:45:57;;;;;;;1.80;1.70;;;9.60;92.50;;;;;;5020269;28;20548;-77
2023/02/27 11:48:30;;;;;;;1.90;1.80;;;9.80;92.40;;;;;;5019874;28;20207;-75
2023/02/27 11:51:24;;;;;;;2.45;2.20;;;10.00;92.30;;;;;;5037279;23;20223;-70
2023/02/27 11:54:15;;;;;;;2.53;2.08;;;10.00;92.00;;;;;;5033717;28;20278;-70
2023/02/27 11:56:44;;;;;;;2.10;1.95;;;10.20;91.50;;;;;;5013157;28;20282;-71
2023/02/27 11:59:23;;;;;;;1.85;1.75;;;10.10;92.90;;;;;;5037878;28;20612;-73
2023/02/27 12:01:55;;;;;;;2.00;1.90;;;10.20;92.30;;;;;;5035577;28;20222;-72
2023/02/27 12:04:29;;;;;;;1.98;1.88;;;10.30;92.00;;;;;;5023575;28;20602;-70
2023/02/27 12:07:03;;;;;;;2.80;2.03;;;10.30;92.20;;;;;;5017945;28;20231;-72
2023/02/27 12:09:39;;;;;;;2.00;1.90;;;10.30;91.80;;;;;;5015660;28;20287;-71
2023/02/27 12:12:15;;;;;;;2.30;2.20;;;10.20;91.80;;;;;;5020900;28;20254;-73
2023/02/27 12:14:49;;;;;;;2.10;2.00;;;9.90;91.40;;;;;;5021412;28;20690;-72
2023/02/27 12:17:23;;;;;;;2.05;1.88;;;9.90;91.80;;;;;;5018437;28;20625;-71
2023/02/27 12:20:06;;;;;;;1.80;1.80;;;9.90;91.80;;;;;;5020490;28;20282;-72
2023/02/27 12:22:37;;;;;;;2.28;2.17;;;10.10;92.10;;;;;;5020982;28;20216;-72
2023/02/27 12:25:10;;;;;;;2.25;2.05;;;10.50;91.90;;;;;;5012289;28;20200;-70
2023/02/27 12:27:44;;;;;;;1.92;1.70;;;10.60;91.30;;;;;;5019870;28;20195;-70
2023/02/27 12:30:18;;;;;;;2.05;1.95;;;10.50;91.30;;;;;;5019106;28;20227;-72
2023/02/27 12:32:49;;;;;;;2.08;1.98;;;10.60;91.30;;;;;;5019732;28;20191;-71
2023/02/27 12:35:22;;;;;;;2.38;1.80;;;10.30;91.20;;;;;;5018175;28;20287;-71
2023/02/27 12:37:49;;;;;;;2.97;2.00;;;10.20;91.80;;;;;;5020892;28;20290;-69
2023/02/27 12:40:18;;;;;;;2.10;2.00;;;10.10;91.60;;;;;;5018896;28;20807;-71
2023/02/27 12:43:10;;;;;;;2.00;1.90;;;10.30;92.00;;;;;;5017496;28;20652;-74
2023/02/27 12:45:53;;;;;;;2.38;2.00;;;10.50;91.10;;;;;;5020971;28;20292;-71
2023/02/27 12:48:31;;;;;;;1.88;1.77;;;10.80;91.00;;;;;;5018765;28;20329;-71
2023/02/27 12:51:07;;;;;;;2.33;2.13;;;11.10;91.00;;;;;;5016627;28;20255;-73
2023/02/27 12:53:57;;;;;;;1.98;1.88;;;11.40;91.10;;;;;;5018261;28;20192;-72
2023/02/27 12:56:29;;;;;;;1.60;1.48;;;11.40;89.80;;;;;;5024117;28;20194;-72
2023/02/27 12:59:05;;;;;;;2.00;1.90;;;11.50;89.50;;;;;;5020409;28;20300;-71
2023/02/27 13:01:43;;;;;;;1.80;1.70;;;11.50;90.40;;;;;;5021582;28;20634;-70
2023/02/27 13:04:23;;;;;;;1.92;1.83;;;11.80;89.40;;;;;;5020279;28;20309;-71
2023/02/27 13:06:58;;;;;;;1.75;1.65;;;12.00;89.60;;;;;;5017877;28;20286;-71
2023/02/27 13:09:39;;;;;;;1.80;1.70;;;12.10;88.00;;;;;;5016807;28;20609;-75
2023/02/27 13:12:14;;;;;;;1.90;1.80;;;12.00;87.80;;;;;;5020581;28;20317;-71
2023/02/27 13:14:47;;;;;;;1.90;1.80;;;11.70;88.10;;;;;;5020338;28;20282;-72
2023/02/27 13:17:22;;;;;;;1.85;1.45;;;11.80;89.00;;;;;;5017259;28;20196;-71
2023/02/27 13:19:53;;;;;;;1.85;1.75;;;11.80;87.10;;;;;;5012224;28;20282;-75